sensor_id;sensor_type;location;lat;lon;timestamp;temperature;humidity
12223;DHT22;6174;49.058;8.524;2023-04-20T05:01:54;3.40;99.90
12223;DHT22;6174;49.058;8.524;2023-04-20T05:04:20;3.30;99.90
12223;DHT22;6174;49.058;8.524;2023-04-20T05:06:47;3.40;99.90
12223;DHT22;6174;49.058;8.524;2023-04-20T05:09:14;3.30;99.90
12223;DHT22;6174;49.058;8.524;2023-04-20T05:11:41;3.40;99.90
12223;DHT22;6174;49.058;8.524;2023-04-20T05:14:08;3.40;99.90
12223;DHT22;6174;49.058;8.524;2023-04-20T05:16:34;3.50;99.90
12223;DHT22;6174;49.058;8.524;2023-04-20T05:19:02;3.50;99.90
12223;DHT22;6174;49.058;8.524;2023-04-20T05:21:29;3.60;99.90
12223;DHT22;6174;49.058;8.524;2023-04-20T05:23:57;3.70;99.90
12223;DHT22;6174;49.058;8.524;2023-04-20T05:26:23;3.90;99.90
12223;DHT22;6174;49.058;8.524;2023-04-20T05:28:50;4.00;99.90
12223;DHT22;6174;49.058;8.524;2023-04-20T05:31:17;4.00;99.90
12223;DHT22;6174;49.058;8.524;2023-04-20T05:33:44;4.10;99.90
12223;DHT22;6174;49.058;8.524;2023-04-20T05:36:12;4.20;99.90
12223;DHT22;6174;49.058;8.524;2023-04-20T05:38:39;4.30;99.90
12223;DHT22;6174;49.058;8.524;2023-04-20T05:41:06;4.40;99.90
12223;DHT22;6174;49.058;8.524;2023-04-20T05:43:32;4.60;99.90
12223;DHT22;6174;49.058;8.524;2023-04-20T05:45:59;4.70;99.90
12223;DHT22;6174;49.058;8.524;2023-04-20T05:48:26;4.80;99.90
12223;DHT22;6174;49.058;8.524;2023-04-20T05:50:52;4.90;99.90
12223;DHT22;6174;49.058;8.524;2023-04-20T05:53:21;5.00;99.90
12223;DHT22;6174;49.058;8.524;2023-04-20T05:55:48;5.30;99.90
12223;DHT22;6174;49.058;8.524;2023-04-20T05:58:15;5.50;99.90
12223;DHT22;6174;49.058;8.524;2023-04-20T06:00:42;5.70;99.90
12223;DHT22;6174;49.058;8.524;2023-04-20T06:03:09;5.90;99.90
12223;DHT22;6174;49.058;8.524;2023-04-20T06:05:36;6.00;99.90
12223;DHT22;6174;49.058;8.524;2023-04-20T06:08:03;6.20;99.90
12223;DHT22;6174;49.058;8.524;2023-04-20T06:10:31;6.40;99.90
12223;DHT22;6174;49.058;8.524;2023-04-20T06:12:58;6.60;99.90
12223;DHT22;6174;49.058;8.524;2023-04-20T06:15:25;6.90;99.90
12223;DHT22;6174;49.058;8.524;2023-04-20T06:17:52;6.80;99.90
12223;DHT22;6174;49.058;8.524;2023-04-20T06:20:18;6.80;99.90
12223;DHT22;6174;49.058;8.524;2023-04-20T06:22:45;6.90;99.90
12223;DHT22;6174;49.058;8.524;2023-04-20T06:25:12;7.00;99.90
12223;DHT22;6174;49.058;8.524;2023-04-20T06:27:41;7.40;99.90
12223;DHT22;6174;49.058;8.524;2023-04-20T06:30:08;7.90;99.90
12223;DHT22;6174;49.058;8.524;2023-04-20T06:32:35;8.30;99.90
12223;DHT22;6174;49.058;8.524;2023-04-20T06:35:02;8.70;99.90
12223;DHT22;6174;49.058;8.524;2023-04-20T06:37:29;9.00;99.90
12223;DHT22;6174;49.058;8.524;2023-04-20T06:39:56;9.10;99.00
12223;DHT22;6174;49.058;8.524;2023-04-20T06:42:22;9.10;98.40
12223;DHT22;6174;49.058;8.524;2023-04-20T06:44:51;9.10;98.10
12223;DHT22;6174;49.058;8.524;2023-04-20T06:47:17;9.30;98.10
12223;DHT22;6174;49.058;8.524;2023-04-20T06:49:45;9.40;97.40
12223;DHT22;6174;49.058;8.524;2023-04-20T06:52:11;9.40;96.80
12223;DHT22;6174;49.058;8.524;2023-04-20T06:54:38;9.60;96.60
12223;DHT22;6174;49.058;8.524;2023-04-20T06:57:05;9.90;96.50
12223;DHT22;6174;49.058;8.524;2023-04-20T06:59:31;10.20;96.80
12223;DHT22;6174;49.058;8.524;2023-04-20T07:01:59;10.60;95.90
12223;DHT22;6174;49.058;8.524;2023-04-20T07:04:26;10.80;94.20
12223;DHT22;6174;49.058;8.524;2023-04-20T07:06:53;11.00;94.10
12223;DHT22;6174;49.058;8.524;2023-04-20T07:09:20;11.00;94.10
12223;DHT22;6174;49.058;8.524;2023-04-20T07:11:47;11.00;93.00
12223;DHT22;6174;49.058;8.524;2023-04-20T07:14:14;11.40;93.30
12223;DHT22;6174;49.058;8.524;2023-04-20T07:16:41;11.60;93.20
12223;DHT22;6174;49.058;8.524;2023-04-20T07:19:09;11.80;91.60
12223;DHT22;6174;49.058;8.524;2023-04-20T07:21:36;12.00;91.30
12223;DHT22;6174;49.058;8.524;2023-04-20T07:24:03;11.90;90.80
12223;DHT22;6174;49.058;8.524;2023-04-20T07:26:30;12.10;91.50
12223;DHT22;6174;49.058;8.524;2023-04-20T07:28:57;12.40;91.50
12223;DHT22;6174;49.058;8.524;2023-04-20T07:31:23;12.40;90.20
12223;DHT22;6174;49.058;8.524;2023-04-20T07:33:50;12.60;90.40
12223;DHT22;6174;49.058;8.524;2023-04-20T07:36:18;12.80;90.70
12223;DHT22;6174;49.058;8.524;2023-04-20T07:38:46;12.80;90.40
12223;DHT22;6174;49.058;8.524;2023-04-20T07:41:14;13.00;89.40
12223;DHT22;6174;49.058;8.524;2023-04-20T07:43:41;12.70;87.30
12223;DHT22;6174;49.058;8.524;2023-04-20T07:46:09;12.50;88.30
12223;DHT22;6174;49.058;8.524;2023-04-20T07:48:36;12.30;90.20
12223;DHT22;6174;49.058;8.524;2023-04-20T07:51:37;12.00;89.80
12223;DHT22;6174;49.058;8.524;2023-04-20T07:54:04;12.00;91.10
12223;DHT22;6174;49.058;8.524;2023-04-20T07:56:30;11.90;91.80
12223;DHT22;6174;49.058;8.524;2023-04-20T07:58:57;11.90;91.70
12223;DHT22;6174;49.058;8.524;2023-04-20T08:01:24;11.70;91.80
12223;DHT22;6174;49.058;8.524;2023-04-20T08:03:51;11.60;92.20
12223;DHT22;6174;49.058;8.524;2023-04-20T08:06:19;11.50;91.80
12223;DHT22;6174;49.058;8.524;2023-04-20T08:08:47;11.10;92.20
12223;DHT22;6174;49.058;8.524;2023-04-20T08:11:14;11.10;93.30
12223;DHT22;6174;49.058;8.524;2023-04-20T08:13:40;11.00;93.10
12223;DHT22;6174;49.058;8.524;2023-04-20T08:16:07;11.00;93.10
12223;DHT22;6174;49.058;8.524;2023-04-20T08:18:34;10.90;93.80
12223;DHT22;6174;49.058;8.524;2023-04-20T08:21:00;11.00;93.00
12223;DHT22;6174;49.058;8.524;2023-04-20T08:23:27;11.00;92.70
12223;DHT22;6174;49.058;8.524;2023-04-20T08:25:56;11.00;92.20
12223;DHT22;6174;49.058;8.524;2023-04-20T08:28:23;11.10;93.50
12223;DHT22;6174;49.058;8.524;2023-04-20T08:30:50;11.20;93.70
12223;DHT22;6174;49.058;8.524;2023-04-20T08:33:17;11.30;93.60
12223;DHT22;6174;49.058;8.524;2023-04-20T08:35:44;11.30;94.00
12223;DHT22;6174;49.058;8.524;2023-04-20T08:38:11;11.40;94.50
12223;DHT22;6174;49.058;8.524;2023-04-20T08:40:37;11.40;94.10
12223;DHT22;6174;49.058;8.524;2023-04-20T08:43:05;11.60;95.30
12223;DHT22;6174;49.058;8.524;2023-04-20T08:45:32;11.80;94.40
12223;DHT22;6174;49.058;8.524;2023-04-20T08:48:02;11.90;92.50
12223;DHT22;6174;49.058;8.524;2023-04-20T08:50:31;12.00;92.20
12223;DHT22;6174;49.058;8.524;2023-04-20T08:52:58;12.00;91.60
12223;DHT22;6174;49.058;8.524;2023-04-20T08:55:25;11.80;91.40
12223;DHT22;6174;49.058;8.524;2023-04-20T08:57:52;11.60;91.90
12223;DHT22;6174;49.058;8.524;2023-04-20T09:00:23;11.60;93.40
12223;DHT22;6174;49.058;8.524;2023-04-20T09:02:50;11.70;92.30
12223;DHT22;6174;49.058;8.524;2023-04-20T09:05:24;11.90;92.10
12223;DHT22;6174;49.058;8.524;2023-04-20T09:07:52;12.00;90.50
12223;DHT22;6174;49.058;8.524;2023-04-20T09:10:20;12.00;90.30
12223;DHT22;6174;49.058;8.524;2023-04-20T09:12:48;12.10;91.90
12223;DHT22;6174;49.058;8.524;2023-04-20T09:15:25;12.20;92.40
12223;DHT22;6174;49.058;8.524;2023-04-20T09:17:52;12.30;93.50
12223;DHT22;6174;49.058;8.524;2023-04-20T09:20:29;12.50;92.70
12223;DHT22;6174;49.058;8.524;2023-04-20T09:22:56;12.50;91.20
12223;DHT22;6174;49.058;8.524;2023-04-20T09:25:23;12.40;91.00
12223;DHT22;6174;49.058;8.524;2023-04-20T09:27:56;12.20;90.50
12223;DHT22;6174;49.058;8.524;2023-04-20T09:30:35;12.10;90.60
12223;DHT22;6174;49.058;8.524;2023-04-20T09:33:02;12.00;91.80
12223;DHT22;6174;49.058;8.524;2023-04-20T09:35:29;12.00;91.80
12223;DHT22;6174;49.058;8.524;2023-04-20T09:37:56;12.00;91.70
12223;DHT22;6174;49.058;8.524;2023-04-20T09:40:23;12.00;91.30
12223;DHT22;6174;49.058;8.524;2023-04-20T09:42:52;12.00;91.50
12223;DHT22;6174;49.058;8.524;2023-04-20T09:45:19;12.20;92.60
12223;DHT22;6174;49.058;8.524;2023-04-20T09:47:47;12.40;91.90
12223;DHT22;6174;49.058;8.524;2023-04-20T09:50:15;12.50;92.40
12223;DHT22;6174;49.058;8.524;2023-04-20T09:52:42;12.50;90.40
12223;DHT22;6174;49.058;8.524;2023-04-20T09:55:13;12.20;91.20
12223;DHT22;6174;49.058;8.524;2023-04-20T09:57:40;12.30;92.40
12223;DHT22;6174;49.058;8.524;2023-04-20T10:00:08;12.20;91.60
12223;DHT22;6174;49.058;8.524;2023-04-20T10:02:37;12.10;91.70
12223;DHT22;6174;49.058;8.524;2023-04-20T10:05:06;12.20;91.70
12223;DHT22;6174;49.058;8.524;2023-04-20T10:07:33;12.20;92.60
12223;DHT22;6174;49.058;8.524;2023-04-20T10:10:05;12.10;91.30
12223;DHT22;6174;49.058;8.524;2023-04-20T10:12:32;12.00;90.80
12223;DHT22;6174;49.058;8.524;2023-04-20T10:15:01;11.90;91.50
12223;DHT22;6174;49.058;8.524;2023-04-20T10:17:29;11.70;90.90
12223;DHT22;6174;49.058;8.524;2023-04-20T10:19:56;11.80;92.90
12223;DHT22;6174;49.058;8.524;2023-04-20T10:22:29;11.80;92.20
12223;DHT22;6174;49.058;8.524;2023-04-20T10:24:58;11.70;92.10
12223;DHT22;6174;49.058;8.524;2023-04-20T10:27:25;11.60;91.10
12223;DHT22;6174;49.058;8.524;2023-04-20T10:29:52;11.60;92.20
12223;DHT22;6174;49.058;8.524;2023-04-20T10:32:24;11.70;91.70
12223;DHT22;6174;49.058;8.524;2023-04-20T10:35:09;11.60;90.70
12223;DHT22;6174;49.058;8.524;2023-04-20T10:37:48;11.50;90.60
12223;DHT22;6174;49.058;8.524;2023-04-20T10:40:15;11.40;90.60
12223;DHT22;6174;49.058;8.524;2023-04-20T10:42:42;11.30;92.40
12223;DHT22;6174;49.058;8.524;2023-04-20T10:45:10;11.30;92.60
12223;DHT22;6174;49.058;8.524;2023-04-20T10:47:37;11.10;92.30
12223;DHT22;6174;49.058;8.524;2023-04-20T10:50:06;10.80;94.10
12223;DHT22;6174;49.058;8.524;2023-04-20T10:52:34;10.50;97.80
12223;DHT22;6174;49.058;8.524;2023-04-20T10:55:03;10.10;99.90
12223;DHT22;6174;49.058;8.524;2023-04-20T10:57:32;9.90;99.90
12223;DHT22;6174;49.058;8.524;2023-04-20T10:59:59;9.80;99.90
12223;DHT22;6174;49.058;8.524;2023-04-20T11:02:25;9.80;99.90
12223;DHT22;6174;49.058;8.524;2023-04-20T11:04:53;9.70;99.90
12223;DHT22;6174;49.058;8.524;2023-04-20T11:07:25;9.80;99.90
12223;DHT22;6174;49.058;8.524;2023-04-20T11:09:53;9.80;99.90
12223;DHT22;6174;49.058;8.524;2023-04-20T11:12:22;10.00;99.90
12223;DHT22;6174;49.058;8.524;2023-04-20T11:14:53;10.20;99.90
12223;DHT22;6174;49.058;8.524;2023-04-20T11:17:30;10.40;99.90
12223;DHT22;6174;49.058;8.524;2023-04-20T11:20:04;10.40;99.90
12223;DHT22;6174;49.058;8.524;2023-04-20T11:22:35;10.60;99.90
12223;DHT22;6174;49.058;8.524;2023-04-20T11:25:03;10.80;99.90
12223;DHT22;6174;49.058;8.524;2023-04-20T11:27:33;10.80;99.90
12223;DHT22;6174;49.058;8.524;2023-04-20T11:30:00;10.90;99.90
12223;DHT22;6174;49.058;8.524;2023-04-20T11:32:30;11.00;99.90
12223;DHT22;6174;49.058;8.524;2023-04-20T11:34:58;11.10;99.90
12223;DHT22;6174;49.058;8.524;2023-04-20T11:37:26;11.20;99.90
12223;DHT22;6174;49.058;8.524;2023-04-20T11:40:00;11.30;99.90
12223;DHT22;6174;49.058;8.524;2023-04-20T11:42:27;11.30;98.80
12223;DHT22;6174;49.058;8.524;2023-04-20T11:44:55;11.30;98.10
12223;DHT22;6174;49.058;8.524;2023-04-20T11:47:22;11.40;97.70
12223;DHT22;6174;49.058;8.524;2023-04-20T11:49:49;11.30;95.10
12223;DHT22;6174;49.058;8.524;2023-04-20T11:52:16;11.20;94.60
12223;DHT22;6174;49.058;8.524;2023-04-20T11:54:42;11.30;96.30
12223;DHT22;6174;49.058;8.524;2023-04-20T11:57:09;11.20;95.80
12223;DHT22;6174;49.058;8.524;2023-04-20T11:59:36;11.20;95.30
12223;DHT22;6174;49.058;8.524;2023-04-20T12:02:04;11.10;94.30
12223;DHT22;6174;49.058;8.524;2023-04-20T12:04:30;11.10;94.90
12223;DHT22;6174;49.058;8.524;2023-04-20T12:06:58;11.00;94.50
12223;DHT22;6174;49.058;8.524;2023-04-20T12:09:26;11.00;95.00
12223;DHT22;6174;49.058;8.524;2023-04-20T12:11:55;11.00;94.90
12223;DHT22;6174;49.058;8.524;2023-04-20T12:14:22;11.00;96.00
12223;DHT22;6174;49.058;8.524;2023-04-20T12:16:48;11.10;96.80
12223;DHT22;6174;49.058;8.524;2023-04-20T12:19:16;11.00;95.70
12223;DHT22;6174;49.058;8.524;2023-04-20T12:21:43;11.20;97.10
12223;DHT22;6174;49.058;8.524;2023-04-20T12:24:11;11.10;96.70
12223;DHT22;6174;49.058;8.524;2023-04-20T12:26:38;11.10;95.30
12223;DHT22;6174;49.058;8.524;2023-04-20T12:29:05;11.10;95.30
12223;DHT22;6174;49.058;8.524;2023-04-20T12:31:32;11.00;94.90
12223;DHT22;6174;49.058;8.524;2023-04-20T12:33:59;11.00;94.80
12223;DHT22;6174;49.058;8.524;2023-04-20T12:36:28;10.80;94.60
12223;DHT22;6174;49.058;8.524;2023-04-20T12:38:54;10.70;95.60
12223;DHT22;6174;49.058;8.524;2023-04-20T12:41:22;10.60;96.50
12223;DHT22;6174;49.058;8.524;2023-04-20T12:43:48;10.50;97.20
12223;DHT22;6174;49.058;8.524;2023-04-20T12:46:15;10.30;96.30
12223;DHT22;6174;49.058;8.524;2023-04-20T12:48:42;10.20;96.50
12223;DHT22;6174;49.058;8.524;2023-04-20T12:51:10;10.20;96.70
12223;DHT22;6174;49.058;8.524;2023-04-20T12:53:38;10.10;96.90
12223;DHT22;6174;49.058;8.524;2023-04-20T12:56:06;10.10;96.80
12223;DHT22;6174;49.058;8.524;2023-04-20T12:58:32;10.10;97.10
12223;DHT22;6174;49.058;8.524;2023-04-20T13:00:59;10.00;97.70
12223;DHT22;6174;49.058;8.524;2023-04-20T13:03:26;10.10;98.60
12223;DHT22;6174;49.058;8.524;2023-04-20T13:05:53;10.00;98.80
12223;DHT22;6174;49.058;8.524;2023-04-20T13:08:20;9.90;99.90
12223;DHT22;6174;49.058;8.524;2023-04-20T13:10:48;9.80;99.90
12223;DHT22;6174;49.058;8.524;2023-04-20T13:13:14;9.70;99.90
12223;DHT22;6174;49.058;8.524;2023-04-20T13:15:41;9.70;99.90
12223;DHT22;6174;49.058;8.524;2023-04-20T13:18:08;9.70;99.90
12223;DHT22;6174;49.058;8.524;2023-04-20T13:20:35;9.70;99.90
12223;DHT22;6174;49.058;8.524;2023-04-20T13:23:02;9.70;99.90
12223;DHT22;6174;49.058;8.524;2023-04-20T13:25:30;9.60;99.90
12223;DHT22;6174;49.058;8.524;2023-04-20T13:28:00;9.50;99.90
12223;DHT22;6174;49.058;8.524;2023-04-20T13:30:27;9.40;99.90
12223;DHT22;6174;49.058;8.524;2023-04-20T13:32:54;9.30;99.90
12223;DHT22;6174;49.058;8.524;2023-04-20T13:35:20;9.20;99.90
12223;DHT22;6174;49.058;8.524;2023-04-20T13:37:47;9.20;99.90
12223;DHT22;6174;49.058;8.524;2023-04-20T13:40:14;9.10;99.90
12223;DHT22;6174;49.058;8.524;2023-04-20T13:42:41;9.20;99.90
12223;DHT22;6174;49.058;8.524;2023-04-20T13:45:10;9.20;99.90
12223;DHT22;6174;49.058;8.524;2023-04-20T13:47:37;9.20;99.90
12223;DHT22;6174;49.058;8.524;2023-04-20T13:50:05;9.10;99.90
12223;DHT22;6174;49.058;8.524;2023-04-20T13:52:32;9.10;99.90
12223;DHT22;6174;49.058;8.524;2023-04-20T13:54:59;9.10;99.90
12223;DHT22;6174;49.058;8.524;2023-04-20T13:57:26;9.00;99.90
12223;DHT22;6174;49.058;8.524;2023-04-20T13:59:52;9.00;99.90
12223;DHT22;6174;49.058;8.524;2023-04-20T14:02:20;9.00;99.90
12223;DHT22;6174;49.058;8.524;2023-04-20T14:04:49;9.00;99.90
12223;DHT22;6174;49.058;8.524;2023-04-20T14:07:15;9.00;99.90
12223;DHT22;6174;49.058;8.524;2023-04-20T14:09:42;9.00;99.90
12223;DHT22;6174;49.058;8.524;2023-04-20T14:12:09;9.00;99.90
12223;DHT22;6174;49.058;8.524;2023-04-20T14:14:36;9.00;99.90
12223;DHT22;6174;49.058;8.524;2023-04-20T14:17:03;9.00;99.90
12223;DHT22;6174;49.058;8.524;2023-04-20T14:19:31;9.00;99.90
12223;DHT22;6174;49.058;8.524;2023-04-20T14:21:58;8.90;99.90
12223;DHT22;6174;49.058;8.524;2023-04-20T14:24:25;9.00;99.90
12223;DHT22;6174;49.058;8.524;2023-04-20T14:26:51;9.00;99.90
12223;DHT22;6174;49.058;8.524;2023-04-20T14:29:18;9.00;99.90
12223;DHT22;6174;49.058;8.524;2023-04-20T14:31:45;9.00;99.90
12223;DHT22;6174;49.058;8.524;2023-04-20T14:34:12;9.00;99.90
12223;DHT22;6174;49.058;8.524;2023-04-20T14:36:40;9.00;99.90
12223;DHT22;6174;49.058;8.524;2023-04-20T14:39:07;9.10;99.90
12223;DHT22;6174;49.058;8.524;2023-04-20T14:41:34;9.00;99.90
12223;DHT22;6174;49.058;8.524;2023-04-20T14:44:01;9.10;99.90
12223;DHT22;6174;49.058;8.524;2023-04-20T14:46:28;9.10;99.90
12223;DHT22;6174;49.058;8.524;2023-04-20T14:48:55;9.10;99.90
12223;DHT22;6174;49.058;8.524;2023-04-20T14:51:21;9.20;99.90
12223;DHT22;6174;49.058;8.524;2023-04-20T14:53:49;9.20;99.90
12223;DHT22;6174;49.058;8.524;2023-04-20T14:56:16;9.20;99.90
12223;DHT22;6174;49.058;8.524;2023-04-20T14:58:43;9.30;99.90
12223;DHT22;6174;49.058;8.524;2023-04-20T15:01:12;9.40;99.90
12223;DHT22;6174;49.058;8.524;2023-04-20T15:03:39;9.40;99.90
12223;DHT22;6174;49.058;8.524;2023-04-20T15:06:06;9.40;99.90
12223;DHT22;6174;49.058;8.524;2023-04-20T15:08:33;9.40;99.90
12223;DHT22;6174;49.058;8.524;2023-04-20T15:11:04;9.40;99.90
12223;DHT22;6174;49.058;8.524;2023-04-20T15:13:31;9.70;99.90
12223;DHT22;6174;49.058;8.524;2023-04-20T15:15:58;9.40;99.90
12223;DHT22;6174;49.058;8.524;2023-04-20T15:18:25;9.40;99.90
12223;DHT22;6174;49.058;8.524;2023-04-20T15:20:51;9.40;99.90
12223;DHT22;6174;49.058;8.524;2023-04-20T15:23:18;9.40;99.90
12223;DHT22;6174;49.058;8.524;2023-04-20T15:25:45;9.40;99.90
12223;DHT22;6174;49.058;8.524;2023-04-20T15:28:13;9.40;99.90
12223;DHT22;6174;49.058;8.524;2023-04-20T15:30:40;9.40;99.90
12223;DHT22;6174;49.058;8.524;2023-04-20T15:33:07;9.40;99.90
12223;DHT22;6174;49.058;8.524;2023-04-20T15:35:34;9.40;99.90
12223;DHT22;6174;49.058;8.524;2023-04-20T15:38:00;9.40;99.90
12223;DHT22;6174;49.058;8.524;2023-04-20T15:40:27;9.30;99.90
12223;DHT22;6174;49.058;8.524;2023-04-20T15:42:54;9.30;99.90
12223;DHT22;6174;49.058;8.524;2023-04-20T15:45:22;9.20;99.90
12223;DHT22;6174;49.058;8.524;2023-04-20T15:47:49;9.20;99.90
12223;DHT22;6174;49.058;8.524;2023-04-20T15:50:16;9.20;99.90
12223;DHT22;6174;49.058;8.524;2023-04-20T15:52:43;9.30;99.90
12223;DHT22;6174;49.058;8.524;2023-04-20T15:55:10;9.30;99.90
12223;DHT22;6174;49.058;8.524;2023-04-20T15:57:36;9.30;99.90
12223;DHT22;6174;49.058;8.524;2023-04-20T16:00:04;9.30;99.90
12223;DHT22;6174;49.058;8.524;2023-04-20T16:02:34;9.30;99.90
12223;DHT22;6174;49.058;8.524;2023-04-20T16:05:01;9.20;99.90
12223;DHT22;6174;49.058;8.524;2023-04-20T16:07:28;9.30;99.90
12223;DHT22;6174;49.058;8.524;2023-04-20T16:09:55;9.30;99.90
12223;DHT22;6174;49.058;8.524;2023-04-20T16:12:21;9.30;99.90
12223;DHT22;6174;49.058;8.524;2023-04-20T16:14:48;9.30;99.90
12223;DHT22;6174;49.058;8.524;2023-04-20T16:17:15;9.20;99.90
12223;DHT22;6174;49.058;8.524;2023-04-20T16:19:43;9.20;99.90
12223;DHT22;6174;49.058;8.524;2023-04-20T16:22:10;9.10;99.90
12223;DHT22;6174;49.058;8.524;2023-04-20T16:24:36;9.20;99.90
12223;DHT22;6174;49.058;8.524;2023-04-20T16:27:03;9.20;99.90
12223;DHT22;6174;49.058;8.524;2023-04-20T16:29:30;9.10;99.90
12223;DHT22;6174;49.058;8.524;2023-04-20T16:31:57;9.10;99.90
12223;DHT22;6174;49.058;8.524;2023-04-20T16:34:24;9.10;99.90
12223;DHT22;6174;49.058;8.524;2023-04-20T16:36:52;9.10;99.90
12223;DHT22;6174;49.058;8.524;2023-04-20T16:39:18;9.10;99.90
12223;DHT22;6174;49.058;8.524;2023-04-20T16:41:45;9.10;99.90
12223;DHT22;6174;49.058;8.524;2023-04-20T16:44:12;9.10;99.90
12223;DHT22;6174;49.058;8.524;2023-04-20T16:46:39;9.10;99.90
12223;DHT22;6174;49.058;8.524;2023-04-20T16:49:06;9.10;99.90
12223;DHT22;6174;49.058;8.524;2023-04-20T16:51:33;9.20;99.90
12223;DHT22;6174;49.058;8.524;2023-04-20T16:54:01;9.10;99.90
12223;DHT22;6174;49.058;8.524;2023-04-20T16:56:28;9.10;99.90
12223;DHT22;6174;49.058;8.524;2023-04-20T16:58:54;9.10;99.90
12223;DHT22;6174;49.058;8.524;2023-04-20T17:03:49;9.00;99.90
12223;DHT22;6174;49.058;8.524;2023-04-20T17:06:16;9.00;99.90
12223;DHT22;6174;49.058;8.524;2023-04-20T17:08:43;9.00;99.90
12223;DHT22;6174;49.058;8.524;2023-04-20T17:11:11;9.00;99.90
12223;DHT22;6174;49.058;8.524;2023-04-20T17:13:38;9.10;99.90
12223;DHT22;6174;49.058;8.524;2023-04-20T17:16:04;9.10;99.90
12223;DHT22;6174;49.058;8.524;2023-04-20T17:18:31;9.10;99.90
12223;DHT22;6174;49.058;8.524;2023-04-20T17:21:00;9.10;99.90
12223;DHT22;6174;49.058;8.524;2023-04-20T17:23:27;9.10;99.90
12223;DHT22;6174;49.058;8.524;2023-04-20T17:25:54;9.10;99.90
12223;DHT22;6174;49.058;8.524;2023-04-20T17:28:23;9.10;99.90
12223;DHT22;6174;49.058;8.524;2023-04-20T17:30:50;9.20;99.90
12223;DHT22;6174;49.058;8.524;2023-04-20T17:33:16;9.20;99.90
12223;DHT22;6174;49.058;8.524;2023-04-20T17:35:43;9.10;99.90
12223;DHT22;6174;49.058;8.524;2023-04-20T17:38:10;9.10;99.90
12223;DHT22;6174;49.058;8.524;2023-04-20T17:40:37;9.10;99.90
12223;DHT22;6174;49.058;8.524;2023-04-20T17:43:04;9.10;99.90
12223;DHT22;6174;49.058;8.524;2023-04-20T17:45:33;9.00;99.90
12223;DHT22;6174;49.058;8.524;2023-04-20T17:48:00;9.10;99.90
12223;DHT22;6174;49.058;8.524;2023-04-20T17:50:26;9.00;99.90
12223;DHT22;6174;49.058;8.524;2023-04-20T17:52:53;9.00;99.90
12223;DHT22;6174;49.058;8.524;2023-04-20T17:55:20;9.00;99.90
12223;DHT22;6174;49.058;8.524;2023-04-20T17:57:46;9.00;99.90
12223;DHT22;6174;49.058;8.524;2023-04-20T18:00:14;9.00;99.90
12223;DHT22;6174;49.058;8.524;2023-04-20T18:02:42;9.00;99.90
12223;DHT22;6174;49.058;8.524;2023-04-20T18:05:09;9.00;99.90
12223;DHT22;6174;49.058;8.524;2023-04-20T18:07:36;9.00;99.90
12223;DHT22;6174;49.058;8.524;2023-04-20T18:10:03;9.00;99.90
12223;DHT22;6174;49.058;8.524;2023-04-20T18:12:30;9.00;99.90
12223;DHT22;6174;49.058;8.524;2023-04-20T18:14:58;8.90;99.90
12223;DHT22;6174;49.058;8.524;2023-04-20T18:17:25;8.90;99.90
12223;DHT22;6174;49.058;8.524;2023-04-20T18:19:53;9.00;99.90
12223;DHT22;6174;49.058;8.524;2023-04-20T18:22:19;9.00;99.90
12223;DHT22;6174;49.058;8.524;2023-04-20T18:24:46;9.00;99.90
12223;DHT22;6174;49.058;8.524;2023-04-20T18:27:13;8.90;99.90
12223;DHT22;6174;49.058;8.524;2023-04-20T18:29:40;8.90;99.90
12223;DHT22;6174;49.058;8.524;2023-04-20T18:32:07;8.90;99.90
12223;DHT22;6174;49.058;8.524;2023-04-20T18:34:33;8.90;99.90
12223;DHT22;6174;49.058;8.524;2023-04-20T18:37:02;8.90;99.90
12223;DHT22;6174;49.058;8.524;2023-04-20T18:39:29;8.90;99.90
12223;DHT22;6174;49.058;8.524;2023-04-20T18:41:55;8.90;99.90
12223;DHT22;6174;49.058;8.524;2023-04-20T18:44:22;8.90;99.90
12223;DHT22;6174;49.058;8.524;2023-04-20T18:46:49;8.90;99.90
12223;DHT22;6174;49.058;8.524;2023-04-20T18:49:16;8.90;99.90
12223;DHT22;6174;49.058;8.524;2023-04-20T18:51:42;8.90;99.90
12223;DHT22;6174;49.058;8.524;2023-04-20T18:54:10;8.80;99.90
12223;DHT22;6174;49.058;8.524;2023-04-20T18:56:37;8.80;99.90
12223;DHT22;6174;49.058;8.524;2023-04-20T18:59:04;8.80;99.90
12223;DHT22;6174;49.058;8.524;2023-04-20T19:01:32;8.90;99.90
12223;DHT22;6174;49.058;8.524;2023-04-20T19:04:01;8.90;99.90
12223;DHT22;6174;49.058;8.524;2023-04-20T19:06:28;8.90;99.90
12223;DHT22;6174;49.058;8.524;2023-04-20T19:08:55;8.80;99.90
12223;DHT22;6174;49.058;8.524;2023-04-20T19:11:23;8.80;99.90
12223;DHT22;6174;49.058;8.524;2023-04-20T19:13:50;8.80;99.90
12223;DHT22;6174;49.058;8.524;2023-04-20T19:16:17;8.80;99.90
12223;DHT22;6174;49.058;8.524;2023-04-20T19:18:43;8.80;99.90
12223;DHT22;6174;49.058;8.524;2023-04-20T19:21:11;8.80;99.90
12223;DHT22;6174;49.058;8.524;2023-04-20T19:23:37;8.80;99.90
12223;DHT22;6174;49.058;8.524;2023-04-20T19:26:04;8.80;99.90
12223;DHT22;6174;49.058;8.524;2023-04-20T19:28:33;8.70;99.90
12223;DHT22;6174;49.058;8.524;2023-04-20T19:31:00;8.70;99.90
12223;DHT22;6174;49.058;8.524;2023-04-20T19:33:27;8.70;99.90
12223;DHT22;6174;49.058;8.524;2023-04-20T19:35:53;8.70;99.90
12223;DHT22;6174;49.058;8.524;2023-04-20T19:38:21;8.80;99.90
12223;DHT22;6174;49.058;8.524;2023-04-20T19:40:50;8.80;99.90
12223;DHT22;6174;49.058;8.524;2023-04-20T19:43:17;8.80;99.90
12223;DHT22;6174;49.058;8.524;2023-04-20T19:45:45;8.80;99.90
12223;DHT22;6174;49.058;8.524;2023-04-20T19:48:12;8.70;99.90
12223;DHT22;6174;49.058;8.524;2023-04-20T19:50:39;8.80;99.90
12223;DHT22;6174;49.058;8.524;2023-04-20T19:53:06;8.70;99.90
12223;DHT22;6174;49.058;8.524;2023-04-20T19:55:32;8.70;99.90
12223;DHT22;6174;49.058;8.524;2023-04-20T19:57:59;8.70;99.90
12223;DHT22;6174;49.058;8.524;2023-04-20T20:00:26;8.70;99.90
12223;DHT22;6174;49.058;8.524;2023-04-20T20:02:54;8.70;99.90
12223;DHT22;6174;49.058;8.524;2023-04-20T20:05:21;8.60;99.90
12223;DHT22;6174;49.058;8.524;2023-04-20T20:07:48;8.60;99.90
12223;DHT22;6174;49.058;8.524;2023-04-20T20:10:16;8.50;99.90
12223;DHT22;6174;49.058;8.524;2023-04-20T20:12:43;8.50;99.90
12223;DHT22;6174;49.058;8.524;2023-04-20T20:15:10;8.40;99.90
12223;DHT22;6174;49.058;8.524;2023-04-20T20:17:37;8.40;99.90
12223;DHT22;6174;49.058;8.524;2023-04-20T20:20:06;8.30;99.90
12223;DHT22;6174;49.058;8.524;2023-04-20T20:22:33;8.30;99.90
12223;DHT22;6174;49.058;8.524;2023-04-20T20:25:00;8.20;99.90
12223;DHT22;6174;49.058;8.524;2023-04-20T20:27:27;8.20;99.90
12223;DHT22;6174;49.058;8.524;2023-04-20T20:29:54;8.20;99.90
12223;DHT22;6174;49.058;8.524;2023-04-20T20:32:21;8.10;99.90
12223;DHT22;6174;49.058;8.524;2023-04-20T20:34:49;8.10;99.90
12223;DHT22;6174;49.058;8.524;2023-04-20T20:37:18;8.00;99.90
12223;DHT22;6174;49.058;8.524;2023-04-20T20:39:45;8.00;99.90
12223;DHT22;6174;49.058;8.524;2023-04-20T20:42:12;7.90;99.90
12223;DHT22;6174;49.058;8.524;2023-04-20T20:44:40;7.80;99.90
12223;DHT22;6174;49.058;8.524;2023-04-20T20:47:07;7.70;99.90
12223;DHT22;6174;49.058;8.524;2023-04-20T20:49:33;7.70;99.90
12223;DHT22;6174;49.058;8.524;2023-04-20T20:52:00;7.60;99.90
12223;DHT22;6174;49.058;8.524;2023-04-20T20:54:28;7.60;99.90
12223;DHT22;6174;49.058;8.524;2023-04-20T20:56:55;7.60;99.90
12223;DHT22;6174;49.058;8.524;2023-04-20T20:59:22;7.50;99.90